createdAt,value
2019-04-01T00:00:33.504Z,102108.00
2019-04-01T00:01:46.146Z,102118.73
2019-04-01T00:02:51.207Z,102117.96
2019-04-01T00:03:56.496Z,102117.56
2019-04-01T00:05:01.468Z,102121.13
2019-04-01T00:06:06.566Z,102116.70
2019-04-01T00:07:13.536Z,102111.87
2019-04-01T00:08:18.890Z,102114.20
2019-04-01T00:09:24.139Z,102100.83
2019-04-01T00:10:29.194Z,102105.97
2019-04-01T00:11:34.263Z,102102.06
2019-04-01T00:12:39.266Z,102105.16
2019-04-01T00:13:44.633Z,102107.89
2019-04-01T00:14:50.077Z,102105.66
2019-04-01T00:15:55.211Z,102107.89
2019-04-01T00:17:00.799Z,102105.25
2019-04-01T00:18:06.229Z,102110.14
2019-04-01T00:19:11.339Z,102108.05
2019-04-01T00:20:16.400Z,102106.33
2019-04-01T00:21:21.492Z,102105.46
2019-04-01T00:22:27.296Z,102109.05
2019-04-01T00:23:32.312Z,102109.05
2019-04-01T00:24:37.385Z,102109.98
2019-04-01T00:25:42.422Z,102104.37
2019-04-01T00:26:47.704Z,102108.34
2019-04-01T00:27:53.102Z,102113.62
2019-04-01T00:28:58.420Z,102108.40
2019-04-01T00:30:03.567Z,102113.31
2019-04-01T00:31:09.060Z,102105.91
2019-04-01T00:32:14.477Z,102105.34
2019-04-01T00:33:19.593Z,102105.34
2019-04-01T00:34:24.567Z,102111.89
2019-04-01T00:35:29.560Z,102112.34
2019-04-01T00:36:34.544Z,102108.84
2019-04-01T00:37:39.875Z,102106.75
2019-04-01T00:38:45.059Z,102108.07
2019-04-01T00:39:50.141Z,102110.71
2019-04-01T00:40:55.532Z,102109.45
2019-04-01T00:42:06.452Z,102108.98
2019-04-01T00:43:15.607Z,102111.69
2019-04-01T00:44:20.602Z,102103.05
2019-04-01T00:45:26.034Z,102110.20
2019-04-01T00:46:32.838Z,102109.42
2019-04-01T00:47:37.854Z,102110.40
2019-04-01T00:48:42.776Z,102107.84
2019-04-01T00:49:48.290Z,102103.42
2019-04-01T00:50:53.366Z,102106.12
2019-04-01T00:51:58.473Z,102104.03
2019-04-01T00:53:03.522Z,102105.86
2019-04-01T00:54:08.702Z,102099.72
2019-04-01T00:55:13.759Z,102102.82
2019-04-01T00:56:18.873Z,102108.10
2019-04-01T00:57:23.912Z,102104.14
2019-04-01T00:58:30.702Z,102108.10
2019-04-01T00:59:36.168Z,102106.92
2019-04-01T01:00:41.505Z,102104.74
2019-04-01T01:01:46.700Z,102105.26
2019-04-01T01:02:52.201Z,102111.03
2019-04-01T01:03:57.330Z,102111.03
2019-04-01T01:05:02.466Z,102105.34
2019-04-01T01:06:07.646Z,102106.66
2019-04-01T01:07:12.605Z,102109.77
2019-04-01T01:08:17.976Z,102104.17
2019-04-01T01:09:23.401Z,102102.39
2019-04-01T01:10:28.677Z,102102.91
2019-04-01T01:11:33.904Z,102101.58
2019-04-01T01:12:39.236Z,102100.81
2019-04-01T01:13:44.317Z,102102.13
2019-04-01T01:14:49.411Z,102101.81
2019-04-01T01:15:54.554Z,102102.33
2019-04-01T01:16:59.761Z,102098.97
2019-04-01T01:18:04.885Z,102096.81
2019-04-01T01:19:09.982Z,102101.29
2019-04-01T01:20:15.133Z,102095.23
2019-04-01T01:21:20.856Z,102093.05
2019-04-01T01:22:25.910Z,102100.97
2019-04-01T01:23:30.896Z,102092.73
2019-04-01T01:24:36.513Z,102090.55
2019-04-01T01:25:41.491Z,102084.47
2019-04-01T01:26:46.882Z,102093.33
2019-04-01T01:27:51.969Z,102092.47
2019-04-01T01:28:57.435Z,102095.11
2019-04-01T01:30:02.502Z,102090.38
2019-04-01T01:31:07.536Z,102088.20
2019-04-01T01:32:12.591Z,102090.89
2019-04-01T01:33:17.821Z,102080.42
2019-04-01T01:34:23.423Z,102088.34
2019-04-01T01:35:28.589Z,102082.25
2019-04-01T01:36:34.005Z,102088.84
2019-04-01T01:37:39.356Z,102084.98
2019-04-01T01:38:44.325Z,102081.94
2019-04-01T01:39:49.452Z,102082.39
2019-04-01T01:40:54.792Z,102079.84
2019-04-01T01:42:00.040Z,102082.48
2019-04-01T01:43:05.130Z,102082.13
2019-04-01T01:44:10.279Z,102079.62
2019-04-01T01:45:15.387Z,102081.03
2019-04-01T01:46:20.846Z,102081.95
2019-04-01T01:47:25.953Z,102080.22
2019-04-01T01:48:31.490Z,102081.17
2019-04-01T01:49:36.538Z,102079.91
2019-04-01T01:50:41.531Z,102074.71
2019-04-01T01:51:46.508Z,102078.72
2019-04-01T01:52:51.648Z,102080.90
2019-04-01T01:53:56.673Z,102078.27
2019-04-01T01:55:02.004Z,102077.48
2019-04-01T01:56:07.059Z,102077.08
2019-04-01T01:57:12.116Z,102071.40
2019-04-01T01:58:17.138Z,102075.04
2019-04-01T01:59:22.383Z,102074.17
2019-04-01T02:00:28.500Z,102074.72
2019-04-01T02:01:33.562Z,102073.40
2019-04-01T02:02:38.781Z,102073.40
2019-04-01T02:03:44.109Z,102077.73
2019-04-01T02:04:49.160Z,102072.08
2019-04-01T02:05:54.369Z,102077.03
2019-04-01T02:06:59.725Z,102074.85
2019-04-01T02:08:05.160Z,102074.98
2019-04-01T02:09:12.989Z,102078.00
2019-04-01T02:10:18.082Z,102080.27
2019-04-01T02:11:23.445Z,102073.67
2019-04-01T02:12:28.533Z,102075.05
2019-04-01T02:13:33.669Z,102073.81
2019-04-01T02:14:38.643Z,102075.18
2019-04-01T02:15:44.394Z,102075.18
2019-04-01T02:16:49.804Z,102072.08
2019-04-01T02:17:54.942Z,102071.27
2019-04-01T02:19:00.304Z,102071.67
2019-04-01T02:20:06.149Z,102069.95
2019-04-01T02:21:11.182Z,102071.27
2019-04-01T02:22:16.156Z,102069.12
2019-04-01T02:23:21.656Z,102063.91
2019-04-01T02:24:26.651Z,102066.13
2019-04-01T02:25:31.714Z,102066.63
2019-04-01T02:26:36.731Z,102058.31
2019-04-01T02:27:41.840Z,102063.58
2019-04-01T02:28:47.133Z,102057.91
2019-04-01T02:29:52.297Z,102061.99
2019-04-01T02:30:57.309Z,102058.17
2019-04-01T02:32:02.641Z,102058.22
2019-04-01T02:33:08.004Z,102057.45
2019-04-01T02:34:12.956Z,102056.20
2019-04-01T02:35:18.253Z,102049.21
2019-04-01T02:36:23.643Z,102057.98
2019-04-01T02:37:28.669Z,102054.94
2019-04-01T02:38:33.734Z,102054.53
2019-04-01T02:39:38.762Z,102051.90
2019-04-01T02:40:44.177Z,102052.44
2019-04-01T02:41:49.400Z,102048.03
2019-04-01T02:42:54.482Z,102051.03
2019-04-01T02:43:59.522Z,102045.84
2019-04-01T02:45:04.954Z,102049.39
2019-04-01T02:46:10.071Z,102051.25
2019-04-01T02:47:15.529Z,102047.30
2019-04-01T02:48:20.551Z,102055.20
2019-04-01T02:49:25.860Z,102048.22
2019-04-01T02:50:31.305Z,102045.17
2019-04-01T02:51:36.840Z,102048.30
2019-04-01T02:52:41.920Z,102048.34
2019-04-01T02:53:46.963Z,102049.66
2019-04-01T02:54:52.317Z,102049.66
2019-04-01T02:55:57.285Z,102046.70
2019-04-01T02:57:02.402Z,102047.56
2019-04-01T02:58:07.512Z,102047.16
2019-04-01T02:59:12.556Z,102050.66
2019-04-01T03:00:17.906Z,102046.30
2019-04-01T03:01:23.196Z,102045.84
2019-04-01T03:02:28.504Z,102050.33
2019-04-01T03:03:34.099Z,102052.11
2019-04-01T03:04:39.327Z,102046.43
2019-04-01T03:05:45.221Z,102042.94
2019-04-01T03:06:50.444Z,102053.47
2019-04-01T03:07:55.569Z,102049.61
2019-04-01T03:09:00.749Z,102050.06
2019-04-01T03:10:06.327Z,102051.38
2019-04-01T03:11:11.745Z,102056.66
2019-04-01T03:12:17.067Z,102050.11
2019-04-01T03:13:22.181Z,102049.33
2019-04-01T03:14:27.272Z,102049.78
2019-04-01T03:15:32.642Z,102052.50
2019-04-01T03:16:37.732Z,102041.23
2019-04-01T03:17:43.117Z,102044.38
2019-04-01T03:18:48.351Z,102047.09
2019-04-01T03:19:53.475Z,102036.14
2019-04-01T03:20:58.861Z,102043.59
2019-04-01T03:22:03.886Z,102040.55
2019-04-01T03:23:09.098Z,102043.19
2019-04-01T03:24:14.452Z,102044.50
2019-04-01T03:25:19.483Z,102040.14
2019-04-01T03:26:24.943Z,102037.59
2019-04-01T03:27:30.222Z,102048.05
2019-04-01T03:28:35.275Z,102040.68
2019-04-01T03:29:40.404Z,102042.91
2019-04-01T03:30:45.852Z,102038.17
2019-04-01T03:31:50.934Z,102039.57
2019-04-01T03:32:56.878Z,102030.94
2019-04-01T03:34:01.975Z,102033.08
2019-04-01T03:35:07.924Z,102037.89
2019-04-01T03:36:13.518Z,102029.62
2019-04-01T03:37:18.545Z,102027.44
2019-04-01T03:38:27.845Z,102032.38
2019-04-01T03:39:31.263Z,102038.97
2019-04-01T03:40:36.305Z,102029.34
2019-04-01T03:41:41.338Z,102028.48
2019-04-01T03:42:46.764Z,102028.48
2019-04-01T03:43:52.494Z,102030.25
2019-04-01T03:44:57.904Z,102027.62
2019-04-01T03:46:03.025Z,102023.26
2019-04-01T03:47:08.245Z,102029.92
2019-04-01T03:48:13.345Z,102032.61
2019-04-01T03:49:18.429Z,102033.55
2019-04-01T03:50:23.508Z,102024.83
2019-04-01T03:51:28.560Z,102033.14
2019-04-01T03:52:33.601Z,102027.42
2019-04-01T03:53:38.670Z,102027.47
2019-04-01T03:54:44.039Z,102025.37
2019-04-01T03:55:49.136Z,102021.01
2019-04-01T03:56:54.515Z,102024.96
2019-04-01T03:57:59.559Z,102024.91
2019-04-01T03:59:04.797Z,102023.64
2019-04-01T04:00:10.215Z,102027.22
2019-04-01T04:01:15.266Z,102027.59
2019-04-01T04:02:20.483Z,102022.33
2019-04-01T04:03:25.497Z,102038.54
2019-04-01T04:04:30.923Z,102032.00
2019-04-01T04:05:36.325Z,102038.12
2019-04-01T04:06:41.817Z,102029.31
2019-04-01T04:07:46.910Z,102032.36
2019-04-01T04:08:52.118Z,102032.36
2019-04-01T04:09:57.599Z,102030.55
2019-04-01T04:11:02.706Z,102032.73
2019-04-01T04:12:08.194Z,102029.23
2019-04-01T04:13:13.606Z,102026.23
2019-04-01T04:14:18.692Z,102028.41
2019-04-01T04:15:24.191Z,102027.55
2019-04-01T04:16:29.578Z,102032.41
2019-04-01T04:17:34.766Z,102029.86
2019-04-01T04:18:39.836Z,102025.91
2019-04-01T04:19:45.231Z,102031.55
2019-04-01T04:20:50.390Z,102029.86
2019-04-01T04:21:55.532Z,102026.36
2019-04-01T04:23:00.615Z,102025.04
2019-04-01T04:24:05.777Z,102026.81
2019-04-01T04:25:11.311Z,102033.45
2019-04-01T04:26:16.453Z,102035.22
2019-04-01T04:27:21.513Z,102034.84
2019-04-01T04:28:26.627Z,102031.80
2019-04-01T04:29:31.737Z,102029.70
2019-04-01T04:30:36.833Z,102027.11
2019-04-01T04:31:42.345Z,102027.19
2019-04-01T04:32:47.428Z,102023.74
2019-04-01T04:33:52.447Z,102026.00
2019-04-01T04:34:57.879Z,102023.88
2019-04-01T04:36:03.373Z,102029.14
2019-04-01T04:37:08.574Z,102025.19
2019-04-01T04:38:13.941Z,102026.59
2019-04-01T04:39:19.088Z,102023.95
2019-04-01T04:40:24.510Z,102018.27
2019-04-01T04:41:29.978Z,102020.95
2019-04-01T04:42:35.006Z,102019.64
2019-04-01T04:43:40.394Z,102025.31
2019-04-01T04:44:45.657Z,102017.87
2019-04-01T04:45:50.644Z,102021.89
2019-04-01T04:46:56.272Z,102023.59
2019-04-01T04:48:01.377Z,102029.80
2019-04-01T04:49:06.324Z,102022.39
2019-04-01T04:50:11.845Z,102022.39
2019-04-01T04:51:16.892Z,102026.80
2019-04-01T04:52:21.978Z,102023.26
2019-04-01T04:53:27.890Z,102020.70
2019-04-01T04:54:32.930Z,102019.77
2019-04-01T04:55:38.009Z,102019.31
2019-04-01T04:56:43.066Z,102014.50
2019-04-01T04:57:48.070Z,102022.80
2019-04-01T04:58:53.009Z,102018.45
2019-04-01T04:59:58.105Z,102021.16
2019-04-01T05:01:03.166Z,102018.98
2019-04-01T05:02:09.105Z,102016.80
2019-04-01T05:03:14.410Z,102017.66
2019-04-01T05:04:19.667Z,102018.52
2019-04-01T05:05:25.061Z,102017.66
2019-04-01T05:06:30.163Z,102024.25
2019-04-01T05:07:35.219Z,102021.20
2019-04-01T05:08:40.380Z,102024.30
2019-04-01T05:09:45.514Z,102018.65
2019-04-01T05:10:50.553Z,102018.70
2019-04-01T05:11:55.548Z,102010.06
2019-04-01T05:13:00.703Z,102011.83
2019-04-01T05:14:06.179Z,102015.86
2019-04-01T05:15:11.466Z,102013.23
2019-04-01T05:16:17.150Z,102008.41
2019-04-01T05:17:22.553Z,102015.00
2019-04-01T05:18:27.559Z,102011.58
2019-04-01T05:19:32.917Z,102015.53
2019-04-01T05:20:42.209Z,102014.71
2019-04-01T05:21:47.778Z,102014.26
2019-04-01T05:22:53.692Z,102014.71
2019-04-01T05:23:59.605Z,102016.44
2019-04-01T05:25:04.862Z,102012.94
2019-04-01T05:26:11.220Z,102014.71
2019-04-01T05:27:17.776Z,102012.94
2019-04-01T05:28:24.287Z,102010.39
2019-04-01T05:29:31.125Z,102013.02
2019-04-01T05:30:37.800Z,102009.07
2019-04-01T05:31:46.065Z,102018.28
2019-04-01T05:32:52.946Z,102011.30
2019-04-01T05:34:01.527Z,102017.88
2019-04-01T05:35:09.701Z,102013.52
2019-04-01T05:36:15.454Z,102014.84
2019-04-01T05:37:20.990Z,102014.05
2019-04-01T05:38:26.132Z,102014.95
2019-04-01T05:39:31.860Z,102011.42
2019-04-01T05:40:37.337Z,102016.61
2019-04-01T05:41:42.643Z,102015.70
2019-04-01T05:42:47.862Z,102023.14
2019-04-01T05:43:54.269Z,102020.09
2019-04-01T05:44:59.417Z,102022.73
2019-04-01T05:46:04.684Z,102019.69
2019-04-01T05:47:09.835Z,102020.09
2019-04-01T05:48:16.019Z,102020.43
2019-04-01T05:49:21.175Z,102027.38
2019-04-01T05:50:26.434Z,102025.94
2019-04-01T05:51:32.184Z,102024.50
2019-04-01T05:52:37.341Z,102019.52
2019-04-01T05:53:42.680Z,102018.86
2019-04-01T05:54:48.266Z,102023.47
2019-04-01T05:55:54.366Z,102018.60
2019-04-01T05:56:59.663Z,102014.98
2019-04-01T05:58:04.781Z,102016.13
2019-04-01T05:59:09.981Z,102017.72
2019-04-01T06:00:21.214Z,102021.55
2019-04-01T06:01:30.473Z,102026.69
2019-04-01T06:02:36.008Z,102017.29
2019-04-01T06:03:42.115Z,102021.48
2019-04-01T06:04:47.355Z,102019.58
2019-04-01T06:05:52.503Z,102023.03
2019-04-01T06:06:57.618Z,102025.53
2019-04-01T06:08:03.016Z,102026.27
2019-04-01T06:09:08.991Z,102020.91
2019-04-01T06:10:14.452Z,102021.23
2019-04-01T06:11:19.890Z,102025.88
2019-04-01T06:12:25.041Z,102024.88
2019-04-01T06:13:30.187Z,102029.97
2019-04-01T06:14:35.531Z,102030.34
2019-04-01T06:15:40.667Z,102030.70
2019-04-01T06:16:45.658Z,102027.52
2019-04-01T06:17:50.796Z,102035.84
2019-04-01T06:18:56.154Z,102023.03
2019-04-01T06:20:01.485Z,102026.02
2019-04-01T06:21:07.187Z,102028.17
2019-04-01T06:22:12.277Z,102024.08
2019-04-01T06:23:17.511Z,102030.56
2019-04-01T06:24:24.647Z,102027.39
2019-04-01T06:25:29.669Z,102025.94
2019-04-01T06:26:35.511Z,102023.95
2019-04-01T06:27:41.596Z,102022.52
2019-04-01T06:28:46.959Z,102021.44
2019-04-01T06:29:52.064Z,102025.20
2019-04-01T06:30:57.296Z,102021.97
2019-04-01T06:32:02.772Z,102020.92
2019-04-01T06:33:07.879Z,102019.46
2019-04-01T06:34:13.043Z,102024.65
2019-04-01T06:35:18.334Z,102016.59
2019-04-01T06:36:23.451Z,102016.95
2019-04-01T06:37:28.488Z,102013.77
2019-04-01T06:38:33.952Z,102012.70
2019-04-01T06:39:39.809Z,102017.44
2019-04-01T06:40:44.921Z,102015.58
2019-04-01T06:41:50.274Z,102013.75
2019-04-01T06:42:55.684Z,102010.19
2019-04-01T06:44:01.029Z,102012.20
2019-04-01T06:45:07.020Z,102010.73
2019-04-01T06:46:12.801Z,102008.36
2019-04-01T06:47:17.957Z,102011.56
2019-04-01T06:48:23.262Z,102015.02
2019-04-01T06:49:28.498Z,102018.83
2019-04-01T06:50:33.960Z,102012.08
2019-04-01T06:51:39.088Z,102011.13
2019-04-01T06:52:44.312Z,102011.94
2019-04-01T06:53:49.423Z,102016.30
2019-04-01T06:54:54.557Z,102007.38
2019-04-01T06:55:59.674Z,102012.97
2019-04-01T06:57:04.928Z,102009.78
2019-04-01T06:58:11.893Z,102009.27
2019-04-01T06:59:16.959Z,102013.08
2019-04-01T07:00:22.149Z,102005.30
2019-04-01T07:01:27.183Z,102008.71
2019-04-01T07:02:32.355Z,102011.30
2019-04-01T07:03:37.498Z,102010.84
2019-04-01T07:04:43.130Z,102007.33
2019-04-01T07:05:48.575Z,102007.24
2019-04-01T07:06:54.298Z,102007.64
2019-04-01T07:07:59.875Z,102005.41
2019-04-01T07:09:06.651Z,102006.64
2019-04-01T07:10:12.040Z,102007.90
2019-04-01T07:11:17.557Z,102008.61
2019-04-01T07:12:23.007Z,102010.33
2019-04-01T07:13:28.566Z,102005.91
2019-04-01T07:14:33.757Z,102008.41
2019-04-01T07:15:39.213Z,102009.72
2019-04-01T07:16:44.571Z,102008.03
2019-04-01T07:17:49.732Z,102005.39
2019-04-01T07:18:54.800Z,102006.77
2019-04-01T07:19:59.860Z,102001.49
2019-04-01T07:21:05.146Z,101997.07
2019-04-01T07:22:10.262Z,102002.27
2019-04-01T07:23:15.427Z,102003.06
2019-04-01T07:24:20.565Z,101998.09
2019-04-01T07:25:25.862Z,102002.45
2019-04-01T07:26:31.749Z,102004.55
2019-04-01T07:27:36.844Z,102006.27
2019-04-01T07:28:42.420Z,102002.30
2019-04-01T07:29:47.563Z,102003.63
2019-04-01T07:30:53.025Z,102000.98
2019-04-01T07:31:58.140Z,102001.35
2019-04-01T07:33:03.171Z,102001.75
2019-04-01T07:34:08.493Z,101999.51
2019-04-01T07:35:13.819Z,101998.19
2019-04-01T07:36:19.656Z,101995.95
2019-04-01T07:37:24.769Z,101996.31
2019-04-01T07:38:29.862Z,101996.31
2019-04-01T07:39:35.004Z,102002.40
2019-04-01T07:40:40.542Z,101995.24
2019-04-01T07:41:45.834Z,101997.27
2019-04-01T07:42:50.953Z,101991.38
2019-04-01T07:43:56.057Z,101997.37
2019-04-01T07:45:01.495Z,101997.22
2019-04-01T07:46:08.310Z,101991.84
2019-04-01T07:47:13.722Z,101996.66
2019-04-01T07:48:19.628Z,101992.64
2019-04-01T07:49:24.609Z,101989.44
2019-04-01T07:50:29.714Z,101991.53
2019-04-01T07:51:38.330Z,101990.08
2019-04-01T07:52:42.029Z,101989.53
2019-04-01T07:53:47.171Z,101991.61
2019-04-01T07:54:52.211Z,101989.37
2019-04-01T07:55:57.198Z,101995.42
2019-04-01T07:57:02.339Z,101985.25
2019-04-01T07:58:07.367Z,101986.41
2019-04-01T07:59:12.410Z,101988.53
2019-04-01T08:00:17.661Z,101987.05
2019-04-01T08:01:22.848Z,101984.25
2019-04-01T08:02:27.896Z,101984.25
2019-04-01T08:03:33.021Z,101984.46
2019-04-01T08:04:38.172Z,101979.97
2019-04-01T08:05:43.282Z,101983.77
2019-04-01T08:06:48.766Z,101967.35
2019-04-01T08:07:54.047Z,101967.35
2019-04-01T08:08:59.222Z,101970.01
2019-04-01T08:10:05.482Z,101974.51
2019-04-01T08:11:10.483Z,101974.51
2019-04-01T08:12:15.530Z,101973.89
2019-04-01T08:13:20.633Z,101974.19
2019-04-01T08:14:25.779Z,101972.70
2019-04-01T08:15:31.296Z,101960.56
2019-04-01T08:16:36.614Z,101973.40
2019-04-01T08:17:42.274Z,101974.25
2019-04-01T08:18:47.986Z,101973.23
2019-04-01T08:19:52.954Z,101975.78
2019-04-01T08:20:57.886Z,101972.20
2019-04-01T08:22:02.928Z,101974.69
2019-04-01T08:23:08.189Z,101977.56
2019-04-01T08:24:13.243Z,101974.30
2019-04-01T08:25:18.608Z,101974.12
2019-04-01T08:26:23.874Z,101970.84
2019-04-01T08:27:28.842Z,101970.84
2019-04-01T08:28:33.845Z,101972.86
2019-04-01T08:29:39.221Z,101962.91
2019-04-01T08:30:44.338Z,101965.98
2019-04-01T08:31:49.699Z,101971.20
2019-04-01T08:32:54.790Z,101969.32
2019-04-01T08:34:00.377Z,101970.11
2019-04-01T08:35:06.035Z,101964.36
2019-04-01T08:36:11.187Z,101961.53
2019-04-01T08:37:16.187Z,101958.72
2019-04-01T08:38:21.548Z,101962.98
2019-04-01T08:39:26.589Z,101957.91
2019-04-01T08:40:31.603Z,101962.18
2019-04-01T08:41:36.821Z,101956.32
2019-04-01T08:42:41.999Z,101952.45
2019-04-01T08:43:47.309Z,101962.59
2019-04-01T08:44:52.704Z,101960.17
2019-04-01T08:45:58.047Z,101960.56
2019-04-01T08:47:03.407Z,101961.72
2019-04-01T08:48:08.562Z,101958.03
2019-04-01T08:49:13.528Z,101951.23
2019-04-01T08:50:19.812Z,101952.88
2019-04-01T08:51:24.929Z,101949.92
2019-04-01T08:52:30.001Z,101949.92
2019-04-01T08:53:36.132Z,101938.00
2019-04-01T08:54:41.759Z,101938.00
2019-04-01T08:55:46.708Z,101948.06
2019-04-01T08:56:51.833Z,101947.42
2019-04-01T08:57:57.562Z,101941.95
2019-04-01T08:59:02.673Z,101925.44
2019-04-01T09:00:09.732Z,101940.44
2019-04-01T09:01:15.071Z,101938.77
2019-04-01T09:02:21.583Z,101939.44
2019-04-01T09:03:26.914Z,101935.75
2019-04-01T09:04:32.012Z,101939.55
2019-04-01T09:05:37.071Z,101940.69
2019-04-01T09:06:42.129Z,101932.38
2019-04-01T09:07:47.140Z,101921.86
2019-04-01T09:08:54.125Z,101936.28
2019-04-01T09:10:00.397Z,101931.37
2019-04-01T09:11:05.738Z,101930.25
2019-04-01T09:12:11.117Z,101929.68
2019-04-01T09:13:16.609Z,101927.42
2019-04-01T09:14:21.844Z,101926.77
2019-04-01T09:15:27.195Z,101928.37
2019-04-01T09:16:33.357Z,101914.16
2019-04-01T09:17:40.208Z,101919.66
2019-04-01T09:18:45.083Z,101919.13
2019-04-01T09:19:50.000Z,101919.88
2019-04-01T09:20:54.958Z,101920.27
2019-04-01T09:22:00.362Z,101918.36
2019-04-01T09:23:05.389Z,101916.84
2019-04-01T09:24:10.448Z,101916.66
2019-04-01T09:25:15.987Z,101915.14
2019-04-01T09:26:21.473Z,101916.39
2019-04-01T09:27:26.908Z,101916.67
2019-04-01T09:28:31.984Z,101916.09
2019-04-01T09:29:36.944Z,101917.73
2019-04-01T09:30:42.281Z,101916.30
2019-04-01T09:31:47.729Z,101913.09
2019-04-01T09:32:52.773Z,101918.22
2019-04-01T09:33:57.786Z,101911.00
2019-04-01T09:35:03.089Z,101906.83
2019-04-01T09:36:08.087Z,101912.81
2019-04-01T09:37:13.143Z,101903.44
2019-04-01T09:38:18.189Z,101906.84
2019-04-01T09:39:23.176Z,101906.27
2019-04-01T09:40:28.600Z,101905.71
2019-04-01T09:41:33.488Z,101903.80
2019-04-01T09:42:38.616Z,101896.98
2019-04-01T09:43:43.684Z,101893.77
2019-04-01T09:44:48.630Z,101897.17
2019-04-01T09:45:53.699Z,101894.41
2019-04-01T09:46:58.928Z,101895.57
2019-04-01T09:48:04.329Z,101900.77
2019-04-01T09:49:09.294Z,101892.72
2019-04-01T09:50:14.693Z,101893.08
2019-04-01T09:51:19.734Z,101890.23
2019-04-01T09:52:24.820Z,101888.34
2019-04-01T09:53:29.886Z,101885.97
2019-04-01T09:54:35.109Z,101884.17
2019-04-01T09:55:40.544Z,101887.57
2019-04-01T09:56:45.474Z,101883.86
2019-04-01T09:57:50.480Z,101881.98
2019-04-01T09:58:55.810Z,101886.35
2019-04-01T10:00:00.915Z,101879.12
2019-04-01T10:01:05.945Z,101878.07
2019-04-01T10:02:11.692Z,101876.55
2019-04-01T10:03:16.623Z,101876.81
2019-04-01T10:04:21.709Z,101879.70
2019-04-01T10:05:27.616Z,101884.81
2019-04-01T10:06:32.725Z,101877.97
2019-04-01T10:07:38.858Z,101877.41
2019-04-01T10:08:44.276Z,101875.50
2019-04-01T10:09:49.412Z,101868.30
2019-04-01T10:10:54.502Z,101866.27
2019-04-01T10:11:59.480Z,101862.47
2019-04-01T10:13:04.633Z,101860.85
2019-04-01T10:14:09.768Z,101864.05
2019-04-01T10:15:14.867Z,101862.42
2019-04-01T10:16:20.039Z,101860.89
2019-04-01T10:17:25.201Z,101866.59
2019-04-01T10:18:30.781Z,101858.03
2019-04-01T10:19:36.287Z,101852.72
2019-04-01T10:20:41.361Z,101846.93
2019-04-01T10:21:46.458Z,101843.68
2019-04-01T10:22:51.474Z,101838.75
2019-04-01T10:23:56.473Z,101842.14
2019-04-01T10:25:01.374Z,101838.93
2019-04-01T10:26:06.511Z,101845.72
2019-04-01T10:27:11.870Z,101842.03
2019-04-01T10:28:17.356Z,101832.52
2019-04-01T10:29:22.419Z,101823.39
2019-04-01T10:30:27.939Z,101823.66
2019-04-01T10:31:33.377Z,101825.72
2019-04-01T10:32:38.826Z,101837.00
2019-04-01T10:33:43.882Z,101823.23
2019-04-01T10:34:49.201Z,101820.45
2019-04-01T10:35:54.576Z,101823.41
2019-04-01T10:36:59.577Z,101822.07
2019-04-01T10:38:05.262Z,101821.48
2019-04-01T10:39:10.307Z,101817.40
2019-04-01T10:40:15.916Z,101818.61
2019-04-01T10:41:21.014Z,101814.53
2019-04-01T10:42:26.132Z,101812.13
2019-04-01T10:43:31.116Z,101814.58
2019-04-01T10:44:36.039Z,101814.74
2019-04-01T10:45:41.192Z,101812.44
2019-04-01T10:46:47.015Z,101817.57
2019-04-01T10:47:52.292Z,101813.93
2019-04-01T10:48:57.477Z,101812.13
2019-04-01T10:50:02.545Z,101810.20
2019-04-01T10:51:07.596Z,101800.42
2019-04-01T10:52:12.659Z,101801.53
2019-04-01T10:53:17.816Z,101800.97
2019-04-01T10:54:23.086Z,101796.00
2019-04-01T10:55:28.188Z,101794.48
2019-04-01T10:56:35.855Z,101788.95
2019-04-01T10:57:46.143Z,101789.29
2019-04-01T10:58:51.941Z,101786.41
2019-04-01T10:59:56.910Z,101788.38
2019-04-01T11:01:01.900Z,101782.84
2019-04-01T11:02:06.975Z,101784.45
2019-04-01T11:03:12.313Z,101782.41
2019-04-01T11:04:17.710Z,101782.30
2019-04-01T11:05:23.360Z,101781.70
2019-04-01T11:06:28.726Z,101781.13
2019-04-01T11:07:34.099Z,101777.88
2019-04-01T11:08:39.129Z,101777.78
2019-04-01T11:09:44.610Z,101772.36
2019-04-01T11:10:49.727Z,101770.94
2019-04-01T11:11:55.155Z,101769.48
2019-04-01T11:13:01.150Z,101770.23
2019-04-01T11:14:06.876Z,101769.25
2019-04-01T11:15:15.346Z,101762.88
2019-04-01T11:16:19.192Z,101760.47
2019-04-01T11:17:24.700Z,101763.86
2019-04-01T11:18:30.292Z,101759.64
2019-04-01T11:19:35.862Z,101761.12
2019-04-01T11:20:40.928Z,101756.53
2019-04-01T11:21:45.928Z,101759.00
2019-04-01T11:22:50.955Z,101758.77
2019-04-01T11:23:56.055Z,101757.22
2019-04-01T11:25:01.284Z,101758.89
2019-04-01T11:26:06.632Z,101758.67
2019-04-01T11:27:11.760Z,101756.38
2019-04-01T11:28:16.731Z,101758.09
2019-04-01T11:29:25.515Z,101753.14
2019-04-01T11:30:28.940Z,101753.39
2019-04-01T11:31:35.095Z,101751.93
2019-04-01T11:32:43.039Z,101752.69
2019-04-01T11:33:48.178Z,101749.41
2019-04-01T11:34:56.055Z,101749.19
2019-04-01T11:36:00.813Z,101744.01
2019-04-01T11:37:06.362Z,101752.72
2019-04-01T11:38:13.011Z,101747.77
2019-04-01T11:39:18.665Z,101753.34
2019-04-01T11:40:24.278Z,101744.88
2019-04-01T11:41:29.629Z,101738.22
2019-04-01T11:42:35.294Z,101737.73
2019-04-01T11:43:40.340Z,101744.27
2019-04-01T11:44:45.599Z,101738.36
2019-04-01T11:45:50.633Z,101737.28
2019-04-01T11:46:56.293Z,101735.84
2019-04-01T11:48:01.335Z,101733.05
2019-04-01T11:49:06.860Z,101723.11
2019-04-01T11:50:12.488Z,101730.05
2019-04-01T11:51:32.052Z,101728.72
2019-04-01T11:52:24.607Z,101726.77
2019-04-01T11:53:29.633Z,101729.20
2019-04-01T11:54:34.759Z,101725.58
2019-04-01T11:55:39.812Z,101723.64
2019-04-01T11:56:46.449Z,101723.41
2019-04-01T11:57:51.611Z,101716.16
2019-04-01T11:58:57.099Z,101711.17
2019-04-01T12:01:19.110Z,101708.03
2019-04-01T12:02:24.288Z,101712.41
2019-04-01T12:03:29.625Z,101714.22
2019-04-01T12:04:39.776Z,101703.93
2019-04-01T12:05:45.056Z,101701.27
2019-04-01T12:06:50.392Z,101704.65
2019-04-01T12:07:55.668Z,101705.88
2019-04-01T12:09:01.071Z,101700.41
2019-04-01T12:10:07.713Z,101700.66
2019-04-01T12:11:13.099Z,101699.70
2019-04-01T12:12:24.113Z,101701.64
2019-04-01T12:13:24.907Z,101687.36
2019-04-01T12:14:29.964Z,101696.08
2019-04-01T12:15:35.174Z,101695.11
2019-04-01T12:16:40.156Z,101690.50
2019-04-01T12:17:45.457Z,101686.88
2019-04-01T12:18:51.261Z,101688.93
2019-04-01T12:19:56.865Z,101685.78
2019-04-01T12:21:02.223Z,101692.34
2019-04-01T12:22:07.287Z,101686.02
2019-04-01T12:23:12.298Z,101681.06
2019-04-01T12:24:17.742Z,101684.11
2019-04-01T12:25:22.752Z,101677.44
2019-04-01T12:26:27.952Z,101673.67
2019-04-01T12:27:32.868Z,101675.86